Conquistador — WDE8212 — position and weather

sailwx.info

Track history (hours):
 
Tides and Currents Weather Stations Pressure Air Temp Water Temp Dewpoint Dewpoint Depression Visibility Wind Speed Wind Dir Waves Ship Positions

Conquistador

Owner: national facilities corp, Santa Monica, CA. More information available from US FCC via Universal Licensing System and Coast Guard Vessel Documentation Center.

Last reported at 2017-Sep-15 21:40 UTC. Time now 2017-Sep-21 13:56 UTC.
Position N 32°44' W 117°12'.

Length 22 m.

Type: Pleasure craft. MMSI: 367402860.

Date/timePositionNaut miles runAvg speedWind from/ knotsBaromVisibWave heightAir tempDewpointWater temp
2017-Sep-15 21:40N 32°44' W 117°12'0 0.0
2017-Sep-15 20:40N 32°44' W 117°12'0 0.0
2017-Sep-15 20:22N 32°44' W 117°12'0 0.0
2017-Sep-15 19:52N 32°44' W 117°12'0 0.0
2017-Sep-15 19:22N 32°44' W 117°12'0 0.0
2017-Sep-15 17:48N 32°44' W 117°12'0 0.0
2017-Sep-15 17:30N 32°44' W 117°12'0 0.0
2017-Sep-15 16:54N 32°44' W 117°12'0 0.0
2017-Sep-15 16:24N 32°44' W 117°12'0 0.0
2017-Sep-15 16:00N 32°44' W 117°12'0 0.0
2017-Sep-15 12:42N 32°44' W 117°12'0 0.0
2017-Sep-15 12:24N 32°44' W 117°12'0 0.0
2017-Sep-15 06:05N 32°44' W 117°12'0 4.0
2017-Sep-15 06:00N 32°44' W 117°13'4 7.8
2017-Sep-15 05:30N 32°40' W 117°14'4 9.1
2017-Sep-15 05:00N 32°37' W 117°18'510.0
2017-Sep-15 04:30N 32°36' W 117°24'5 9.7
2017-Sep-15 04:00N 32°35' W 117°29'5 9.7
2017-Sep-15 03:30N 32°34' W 117°35'5 9.3
2017-Sep-15 03:00N 32°30' W 117°37'5 9.7
2017-Sep-15 02:30N 32°25' W 117°38'3 1.6
2017-Sep-15 00:31N 32°22' W 117°38'0 7.1
2017-Sep-15 00:30N 32°22' W 117°38'2 3.8
2017-Sep-15 00:00N 32°21' W 117°36'28 0.7
2017-Sep-13 09:19N 32°42' W 117°14'2 0.1
2017-Sep-12 12:01N 32°44' W 117°12'0 0.0
2017-Sep-12 11:52N 32°44' W 117°12'0 0.0
2017-Sep-12 11:07N 32°44' W 117°12'0 0.0
2017-Sep-12 10:49N 32°44' W 117°12'0 0.0
2017-Sep-12 10:19N 32°44' W 117°12'0 0.0
2017-Sep-12 08:43N 32°44' W 117°12'0 0.0
2017-Sep-12 07:19N 32°44' W 117°12'0 0.0
2017-Sep-12 06:37N 32°44' W 117°12'0 0.0
2017-Sep-12 06:25N 32°44' W 117°12'0 0.0
2017-Sep-12 05:55N 32°44' W 117°12'0 0.0
2017-Sep-12 05:25N 32°44' W 117°12'0 0.0
2017-Sep-12 04:31N 32°44' W 117°12'0 0.0
2017-Sep-12 04:25N 32°44' W 117°12'0 0.0
2017-Sep-12 03:55N 32°44' W 117°12'0 0.0
2017-Sep-12 02:55N 32°44' W 117°12'0 0.0
2017-Sep-12 00:55N 32°44' W 117°12'0 0.0
2017-Sep-11 23:37N 32°44' W 117°12'0 0.0
2017-Sep-11 23:19N 32°44' W 117°12'0 0.0
2017-Sep-11 22:49N 32°44' W 117°12'0 0.0
2017-Sep-11 22:25N 32°44' W 117°12'0 0.0
2017-Sep-11 21:49N 32°44' W 117°12'0 0.0
2017-Sep-11 21:25N 32°44' W 117°12'0 0.0
2017-Sep-11 20:37N 32°44' W 117°12'0 0.0
2017-Sep-11 20:25N 32°44' W 117°12'0 0.0
2017-Sep-11 19:43N 32°44' W 117°12'0 0.0
2017-Sep-11 19:19N 32°44' W 117°12'0 0.0
2017-Sep-11 18:55N 32°44' W 117°12'0 0.0
2017-Sep-11 15:55N 32°44' W 117°12'0 0.0
2017-Sep-11 15:13N 32°44' W 117°12'0 0.0
2017-Sep-11 14:49N 32°44' W 117°12'0 0.0
2017-Sep-11 14:19N 32°44' W 117°12'0 0.0
2017-Sep-11 13:55N 32°44' W 117°12'0 0.0
2017-Sep-11 13:19N 32°44' W 117°12'0 0.0
2017-Sep-11 12:55N 32°44' W 117°12'0 0.0
2017-Sep-11 12:28N 32°44' W 117°12'0 0.0
2017-Sep-11 11:55N 32°44' W 117°12'0 0.0
2017-Sep-11 11:28N 32°44' W 117°12'0 0.0
2017-Sep-11 10:55N 32°44' W 117°12'0 0.0
2017-Sep-11 10:25N 32°44' W 117°12'0 0.0
2017-Sep-11 09:55N 32°44' W 117°12'0 0.0
2017-Sep-11 09:25N 32°44' W 117°12'0 0.0
2017-Sep-11 08:49N 32°44' W 117°12'0 0.0
2017-Sep-11 08:13N 32°44' W 117°12'0 0.0
2017-Sep-11 07:55N 32°44' W 117°12'0 0.0
2017-Sep-11 07:25N 32°44' W 117°12'0 0.0
2017-Sep-11 06:55N 32°44' W 117°12'0 0.0
2017-Sep-11 06:25N 32°44' W 117°12'0 0.0
2017-Sep-11 05:58N 32°44' W 117°12'0 0.0
2017-Sep-11 05:13N 32°44' W 117°12'0 0.0
2017-Sep-11 04:07N 32°44' W 117°12'0 0.0
2017-Sep-11 03:55N 32°44' W 117°12'0 0.0
2017-Sep-11 03:28N 32°44' W 117°12'0 0.0
2017-Sep-11 02:55N 32°44' W 117°12'0 0.0
2017-Sep-11 02:28N 32°44' W 117°12'0 0.0
2017-Sep-11 01:58N 32°44' W 117°12'0 0.0
2017-Sep-11 01:25N 32°44' W 117°12'0 0.0
2017-Sep-11 00:55N 32°44' W 117°12'0 0.0
2017-Sep-11 00:25N 32°44' W 117°12'0 0.0
2017-Sep-10 23:43N 32°44' W 117°12'0 0.0
2017-Sep-10 23:25N 32°44' W 117°12'0 0.0
2017-Sep-10 19:07N 32°44' W 117°12'0 0.0
2017-Sep-10 15:19N 32°44' W 117°12'0 0.0
2017-Sep-10 14:55N 32°44' W 117°12'0 0.0
2017-Sep-10 13:49N 32°44' W 117°12'0 0.0
2017-Sep-10 13:19N 32°44' W 117°12'0 0.0
2017-Sep-10 12:31N 32°44' W 117°12'0 0.0
2017-Sep-10 12:01N 32°44' W 117°12'0 0.0
2017-Sep-10 11:55N 32°44' W 117°12'0 0.0
2017-Sep-10 10:55N 32°44' W 117°12'0 0.0
2017-Sep-10 10:19N 32°44' W 117°12'0 0.0
2017-Sep-10 09:55N 32°44' W 117°12'0 0.0
2017-Sep-10 09:19N 32°44' W 117°12'0 0.0
2017-Sep-10 08:37N 32°44' W 117°12'0 0.0
2017-Sep-08 15:43N 32°44' W 117°12'0 0.0
2017-Sep-08 15:25N 32°44' W 117°12'0 0.0
2017-Sep-08 14:55N 32°44' W 117°12'0 0.0
2017-Sep-08 14:19N 32°44' W 117°12'0 0.0
2017-Sep-08 13:58N 32°44' W 117°12'0 0.0
2017-Sep-08 13:01N 32°44' W 117°12'0 0.0
2017-Sep-08 12:13N 32°44' W 117°12'0 0.0
2017-Sep-08 08:55N 32°44' W 117°12'0 0.0
2017-Sep-08 08:19N 32°44' W 117°12'0 0.0
2017-Sep-08 07:55N 32°44' W 117°12'0 0.0
2017-Sep-08 04:07N 32°44' W 117°12'0 0.0
2017-Sep-08 03:37N 32°44' W 117°12'0 0.0
2017-Sep-08 03:19N 32°44' W 117°12'0 0.0
2017-Sep-08 02:37N 32°44' W 117°12'0 0.0
2017-Sep-08 02:19N 32°44' W 117°12'0 0.0
2017-Sep-07 16:43N 32°44' W 117°12'0 0.0
2017-Sep-07 16:13N 32°44' W 117°12'0 0.0
2017-Sep-07 15:49N 32°44' W 117°12'0 0.0
2017-Sep-07 13:43N 32°44' W 117°12'0 0.0
2017-Sep-07 13:25N 32°44' W 117°12'0 0.0
2017-Sep-07 07:07N 32°44' W 117°12'0 0.0
2017-Sep-07 06:55N 32°44' W 117°12'0 0.0
2017-Sep-07 03:37N 32°44' W 117°12'0 0.0
2017-Sep-07 03:25N 32°44' W 117°12'0 0.0
2017-Sep-06 13:31N 32°44' W 117°12'0 0.0
2017-Sep-06 13:25N 32°44' W 117°12'0 0.0
2017-Sep-06 12:55N 32°44' W 117°12'0 0.0
2017-Sep-06 12:01N 32°44' W 117°12'0 0.0
2017-Sep-06 11:31N 32°44' W 117°12'0 0.0
2017-Sep-06 11:25N 32°44' W 117°12'0 0.0
2017-Sep-06 10:43N 32°44' W 117°12'0 0.0
2017-Sep-06 10:25N 32°44' W 117°12'0 0.0
2017-Sep-06 09:49N 32°44' W 117°12'0 0.0
2017-Sep-06 09:19N 32°44' W 117°12'0 0.0
2017-Sep-06 08:49N 32°44' W 117°12'0 0.0
2017-Sep-06 08:25N 32°44' W 117°12'0 0.0
2017-Sep-06 07:55N 32°44' W 117°12'  
Track history (hours):
 
Tides and Currents Weather Stations Pressure Air Temp Water Temp Dewpoint Dewpoint Depression Visibility Wind Speed Wind Dir Waves Ship Positions

Conquistador

Owner: national facilities corp, Santa Monica, CA. More information available from US FCC via Universal Licensing System and Coast Guard Vessel Documentation Center.

Last reported at 2017-Sep-15 21:40 UTC. Time now 2017-Sep-21 13:56 UTC.
Position N 32°44' W 117°12'.

Length 22 m.

Type: Pleasure craft. MMSI: 367402860.

Date/timePositionNaut miles runAvg speedWind from/ knotsBaromVisibWave heightAir tempDewpointWater temp
2017-Sep-15 21:40N 32°44' W 117°12'0 0.0
2017-Sep-15 20:40N 32°44' W 117°12'0 0.0
2017-Sep-15 20:22N 32°44' W 117°12'0 0.0
2017-Sep-15 19:52N 32°44' W 117°12'0 0.0
2017-Sep-15 19:22N 32°44' W 117°12'0 0.0
2017-Sep-15 17:48N 32°44' W 117°12'0 0.0
2017-Sep-15 17:30N 32°44' W 117°12'0 0.0
2017-Sep-15 16:54N 32°44' W 117°12'0 0.0
2017-Sep-15 16:24N 32°44' W 117°12'0 0.0
2017-Sep-15 16:00N 32°44' W 117°12'0 0.0
2017-Sep-15 12:42N 32°44' W 117°12'0 0.0
2017-Sep-15 12:24N 32°44' W 117°12'0 0.0
2017-Sep-15 06:05N 32°44' W 117°12'0 4.0
2017-Sep-15 06:00N 32°44' W 117°13'4 7.8
2017-Sep-15 05:30N 32°40' W 117°14'4 9.1
2017-Sep-15 05:00N 32°37' W 117°18'510.0
2017-Sep-15 04:30N 32°36' W 117°24'5 9.7
2017-Sep-15 04:00N 32°35' W 117°29'5 9.7
2017-Sep-15 03:30N 32°34' W 117°35'5 9.3
2017-Sep-15 03:00N 32°30' W 117°37'5 9.7
2017-Sep-15 02:30N 32°25' W 117°38'3 1.6
2017-Sep-15 00:31N 32°22' W 117°38'0 7.1
2017-Sep-15 00:30N 32°22' W 117°38'2 3.8
2017-Sep-15 00:00N 32°21' W 117°36'28 0.7
2017-Sep-13 09:19N 32°42' W 117°14'2 0.1
2017-Sep-12 12:01N 32°44' W 117°12'0 0.0
2017-Sep-12 11:52N 32°44' W 117°12'0 0.0
2017-Sep-12 11:07N 32°44' W 117°12'0 0.0
2017-Sep-12 10:49N 32°44' W 117°12'0 0.0
2017-Sep-12 10:19N 32°44' W 117°12'0 0.0
2017-Sep-12 08:43N 32°44' W 117°12'0 0.0
2017-Sep-12 07:19N 32°44' W 117°12'0 0.0
2017-Sep-12 06:37N 32°44' W 117°12'0 0.0
2017-Sep-12 06:25N 32°44' W 117°12'0 0.0
2017-Sep-12 05:55N 32°44' W 117°12'0 0.0
2017-Sep-12 05:25N 32°44' W 117°12'0 0.0
2017-Sep-12 04:31N 32°44' W 117°12'0 0.0
2017-Sep-12 04:25N 32°44' W 117°12'0 0.0
2017-Sep-12 03:55N 32°44' W 117°12'0 0.0
2017-Sep-12 02:55N 32°44' W 117°12'0 0.0
2017-Sep-12 00:55N 32°44' W 117°12'0 0.0
2017-Sep-11 23:37N 32°44' W 117°12'0 0.0
2017-Sep-11 23:19N 32°44' W 117°12'0 0.0
2017-Sep-11 22:49N 32°44' W 117°12'0 0.0
2017-Sep-11 22:25N 32°44' W 117°12'0 0.0
2017-Sep-11 21:49N 32°44' W 117°12'0 0.0
2017-Sep-11 21:25N 32°44' W 117°12'0 0.0
2017-Sep-11 20:37N 32°44' W 117°12'0 0.0
2017-Sep-11 20:25N 32°44' W 117°12'0 0.0
2017-Sep-11 19:43N 32°44' W 117°12'0 0.0
2017-Sep-11 19:19N 32°44' W 117°12'0 0.0
2017-Sep-11 18:55N 32°44' W 117°12'0 0.0
2017-Sep-11 15:55N 32°44' W 117°12'0 0.0
2017-Sep-11 15:13N 32°44' W 117°12'0 0.0
2017-Sep-11 14:49N 32°44' W 117°12'0 0.0
2017-Sep-11 14:19N 32°44' W 117°12'0 0.0
2017-Sep-11 13:55N 32°44' W 117°12'0 0.0
2017-Sep-11 13:19N 32°44' W 117°12'0 0.0
2017-Sep-11 12:55N 32°44' W 117°12'0 0.0
2017-Sep-11 12:28N 32°44' W 117°12'0 0.0
2017-Sep-11 11:55N 32°44' W 117°12'0 0.0
2017-Sep-11 11:28N 32°44' W 117°12'0 0.0
2017-Sep-11 10:55N 32°44' W 117°12'0 0.0
2017-Sep-11 10:25N 32°44' W 117°12'0 0.0
2017-Sep-11 09:55N 32°44' W 117°12'0 0.0
2017-Sep-11 09:25N 32°44' W 117°12'0 0.0
2017-Sep-11 08:49N 32°44' W 117°12'0 0.0
2017-Sep-11 08:13N 32°44' W 117°12'0 0.0
2017-Sep-11 07:55N 32°44' W 117°12'0 0.0
2017-Sep-11 07:25N 32°44' W 117°12'0 0.0
2017-Sep-11 06:55N 32°44' W 117°12'0 0.0
2017-Sep-11 06:25N 32°44' W 117°12'0 0.0
2017-Sep-11 05:58N 32°44' W 117°12'0 0.0
2017-Sep-11 05:13N 32°44' W 117°12'0 0.0
2017-Sep-11 04:07N 32°44' W 117°12'0 0.0
2017-Sep-11 03:55N 32°44' W 117°12'0 0.0
2017-Sep-11 03:28N 32°44' W 117°12'0 0.0
2017-Sep-11 02:55N 32°44' W 117°12'0 0.0
2017-Sep-11 02:28N 32°44' W 117°12'0 0.0
2017-Sep-11 01:58N 32°44' W 117°12'0 0.0
2017-Sep-11 01:25N 32°44' W 117°12'0 0.0
2017-Sep-11 00:55N 32°44' W 117°12'0 0.0
2017-Sep-11 00:25N 32°44' W 117°12'0 0.0
2017-Sep-10 23:43N 32°44' W 117°12'0 0.0
2017-Sep-10 23:25N 32°44' W 117°12'0 0.0
2017-Sep-10 19:07N 32°44' W 117°12'0 0.0
2017-Sep-10 15:19N 32°44' W 117°12'0 0.0
2017-Sep-10 14:55N 32°44' W 117°12'0 0.0
2017-Sep-10 13:49N 32°44' W 117°12'0 0.0
2017-Sep-10 13:19N 32°44' W 117°12'0 0.0
2017-Sep-10 12:31N 32°44' W 117°12'0 0.0
2017-Sep-10 12:01N 32°44' W 117°12'0 0.0
2017-Sep-10 11:55N 32°44' W 117°12'0 0.0
2017-Sep-10 10:55N 32°44' W 117°12'0 0.0
2017-Sep-10 10:19N 32°44' W 117°12'0 0.0
2017-Sep-10 09:55N 32°44' W 117°12'0 0.0
2017-Sep-10 09:19N 32°44' W 117°12'0 0.0
2017-Sep-10 08:37N 32°44' W 117°12'0 0.0
2017-Sep-08 15:43N 32°44' W 117°12'0 0.0
2017-Sep-08 15:25N 32°44' W 117°12'0 0.0
2017-Sep-08 14:55N 32°44' W 117°12'0 0.0
2017-Sep-08 14:19N 32°44' W 117°12'0 0.0
2017-Sep-08 13:58N 32°44' W 117°12'0 0.0
2017-Sep-08 13:01N 32°44' W 117°12'0 0.0
2017-Sep-08 12:13N 32°44' W 117°12'0 0.0
2017-Sep-08 08:55N 32°44' W 117°12'0 0.0
2017-Sep-08 08:19N 32°44' W 117°12'0 0.0
2017-Sep-08 07:55N 32°44' W 117°12'0 0.0
2017-Sep-08 04:07N 32°44' W 117°12'0 0.0
2017-Sep-08 03:37N 32°44' W 117°12'0 0.0
2017-Sep-08 03:19N 32°44' W 117°12'0 0.0
2017-Sep-08 02:37N 32°44' W 117°12'0 0.0
2017-Sep-08 02:19N 32°44' W 117°12'0 0.0
2017-Sep-07 16:43N 32°44' W 117°12'0 0.0
2017-Sep-07 16:13N 32°44' W 117°12'0 0.0
2017-Sep-07 15:49N 32°44' W 117°12'0 0.0
2017-Sep-07 13:43N 32°44' W 117°12'0 0.0
2017-Sep-07 13:25N 32°44' W 117°12'0 0.0
2017-Sep-07 07:07N 32°44' W 117°12'0 0.0
2017-Sep-07 06:55N 32°44' W 117°12'0 0.0
2017-Sep-07 03:37N 32°44' W 117°12'0 0.0
2017-Sep-07 03:25N 32°44' W 117°12'0 0.0
2017-Sep-06 13:31N 32°44' W 117°12'0 0.0
2017-Sep-06 13:25N 32°44' W 117°12'0 0.0
2017-Sep-06 12:55N 32°44' W 117°12'0 0.0
2017-Sep-06 12:01N 32°44' W 117°12'0 0.0
2017-Sep-06 11:31N 32°44' W 117°12'0 0.0
2017-Sep-06 11:25N 32°44' W 117°12'0 0.0
2017-Sep-06 10:43N 32°44' W 117°12'0 0.0
2017-Sep-06 10:25N 32°44' W 117°12'0 0.0
2017-Sep-06 09:49N 32°44' W 117°12'0 0.0
2017-Sep-06 09:19N 32°44' W 117°12'0 0.0
2017-Sep-06 08:49N 32°44' W 117°12'0 0.0
2017-Sep-06 08:25N 32°44' W 117°12'0 0.0
2017-Sep-06 07:55N 32°44' W 117°12'  

Dump ship's entire track history